Time;durP1;ratioP1;P1;durP2;ratioP2;P2;SDS_P1;SDS_P2;PMS_P1;PMS_P2;Temp;Humidity;BMP_temperature;BMP_pressure;BME280_temperature;BME280_humidity;BME280_pressure;Samples;Min_cycle;Max_cycle;Signal;HPM_P1;HPM_P2
2023/07/12 00:00:58;;;;;;;4.40;4.20;;;21.30;99.90;;;;;;5072052;28;20186;-74
2023/07/12 00:03:24;;;;;;;5.03;4.60;;;21.30;99.90;;;;;;5071845;28;20216;-73
2023/07/12 00:05:51;;;;;;;4.55;4.18;;;21.30;99.90;;;;;;5071967;28;20182;-73
2023/07/12 00:08:23;;;;;;;4.68;4.35;;;21.20;99.90;;;;;;5071991;28;20209;-73
2023/07/12 00:10:51;;;;;;;4.25;3.47;;;21.20;99.90;;;;;;5053902;28;20221;-73
2023/07/12 00:13:17;;;;;;;4.38;3.78;;;21.20;99.90;;;;;;5071674;28;20175;-72
2023/07/12 00:15:44;;;;;;;4.43;4.03;;;21.30;99.90;;;;;;5071758;28;20217;-74
2023/07/12 00:18:19;;;;;;;4.20;3.92;;;21.20;99.90;;;;;;5091628;28;20177;-74
2023/07/12 00:20:47;;;;;;;4.85;4.50;;;21.20;99.90;;;;;;5073534;28;20247;-73
2023/07/12 00:23:14;;;;;;;6.03;3.90;;;21.10;99.90;;;;;;5091760;28;20222;-75
2023/07/12 00:25:41;;;;;;;3.90;3.60;;;21.10;99.90;;;;;;5091889;28;20169;-73
2023/07/12 00:28:20;;;;;;;3.72;3.53;;;21.10;99.90;;;;;;5091909;28;20201;-74
2023/07/12 00:30:45;;;;;;;5.50;3.50;;;21.20;99.90;;;;;;5091726;28;20688;-75
2023/07/12 00:33:11;;;;;;;4.03;3.72;;;21.20;99.90;;;;;;5091945;28;20169;-74
2023/07/12 00:35:39;;;;;;;4.32;4.00;;;21.30;99.90;;;;;;5091650;28;20193;-73
2023/07/12 00:38:09;;;;;;;4.57;4.15;;;21.30;99.90;;;;;;5091705;28;20252;-74
2023/07/12 00:40:44;;;;;;;4.63;4.32;;;21.30;99.90;;;;;;5091741;28;20564;-72
2023/07/12 00:43:35;;;;;;;4.15;3.85;;;21.40;99.90;;;;;;5091411;28;20169;-73
2023/07/12 00:46:10;;;;;;;4.78;4.38;;;21.40;99.90;;;;;;5071487;28;20605;-73
2023/07/12 00:48:35;;;;;;;4.70;4.30;;;21.50;99.90;;;;;;5071158;28;20264;-74
2023/07/12 00:51:24;;;;;;;4.80;4.50;;;21.50;99.90;;;;;;5071237;28;20214;-73
2023/07/12 00:53:49;;;;;;;5.05;4.60;;;21.50;99.90;;;;;;5070077;28;20174;-74
2023/07/12 00:56:15;;;;;;;4.78;4.47;;;21.60;99.90;;;;;;5086113;28;20205;-75
2023/07/12 00:58:48;;;;;;;7.07;3.80;;;21.60;99.90;;;;;;5091290;28;20256;-73
2023/07/12 01:01:14;;;;;;;4.38;3.97;;;21.60;99.90;;;;;;5073369;28;20169;-74
2023/07/12 01:03:43;;;;;;;4.68;4.30;;;21.60;99.90;;;;;;5090935;28;20286;-74
2023/07/12 01:06:10;;;;;;;4.72;4.32;;;21.60;99.90;;;;;;5091329;28;20170;-74
2023/07/12 01:08:41;;;;;;;4.00;3.70;;;21.60;99.90;;;;;;5091049;28;20189;-74
2023/07/12 01:11:10;;;;;;;5.60;4.32;;;21.70;99.90;;;;;;5091322;28;20197;-74
2023/07/12 01:13:37;;;;;;;4.15;3.80;;;21.70;99.90;;;;;;5090814;28;20655;-74
2023/07/12 01:16:03;;;;;;;4.75;4.35;;;21.70;99.90;;;;;;5091269;28;20608;-75
2023/07/12 01:18:29;;;;;;;3.83;3.53;;;21.80;99.90;;;;;;5090635;28;20223;-74
2023/07/12 01:21:12;;;;;;;3.97;3.67;;;21.70;99.90;;;;;;5090939;28;20204;-75
2023/07/12 01:23:39;;;;;;;3.97;3.78;;;21.60;99.90;;;;;;5080755;28;20185;-74
2023/07/12 01:26:32;;;;;;;4.53;4.22;;;21.50;99.90;;;;;;5070804;28;20213;-75
2023/07/12 01:29:00;;;;;;;3.58;3.28;;;21.50;99.90;;;;;;5070974;28;20582;-74
2023/07/12 01:31:27;;;;;;;3.92;3.60;;;21.50;99.90;;;;;;5070899;28;20174;-74
2023/07/12 01:33:54;;;;;;;5.15;3.75;;;21.40;99.90;;;;;;5070513;28;20555;-74
2023/07/12 01:36:21;;;;;;;5.13;3.55;;;21.30;99.90;;;;;;5070708;28;20200;-73
2023/07/12 01:38:49;;;;;;;4.72;4.32;;;21.20;99.90;;;;;;5070755;28;20170;-74
2023/07/12 01:41:15;;;;;;;3.75;3.55;;;21.10;99.90;;;;;;5070935;28;20155;-72
2023/07/12 01:43:41;;;;;;;4.00;3.70;;;21.00;99.90;;;;;;5070521;28;20177;-74
2023/07/12 01:46:07;;;;;;;4.30;3.67;;;20.80;99.90;;;;;;5070787;28;20170;-73
2023/07/12 01:48:32;;;;;;;5.03;4.65;;;20.80;99.90;;;;;;5070686;28;20182;-75
2023/07/12 01:50:59;;;;;;;5.32;4.82;;;20.70;99.90;;;;;;5074413;28;20197;-74
2023/07/12 01:53:25;;;;;;;5.13;4.72;;;20.70;99.90;;;;;;5090603;28;20186;-74
2023/07/12 01:55:51;;;;;;;5.55;5.22;;;20.60;99.90;;;;;;5072586;28;20247;-74
2023/07/12 01:58:16;;;;;;;4.50;4.20;;;20.60;99.90;;;;;;5090936;28;20169;-74
2023/07/12 02:00:42;;;;;;;7.90;4.25;;;20.60;99.90;;;;;;5088968;28;20565;-74
2023/07/12 02:03:08;;;;;;;4.90;4.55;;;20.70;99.90;;;;;;5090664;28;20211;-75
2023/07/12 02:05:33;;;;;;;4.65;4.20;;;20.70;99.90;;;;;;5090707;28;20242;-74
2023/07/12 02:07:59;;;;;;;4.13;3.92;;;20.80;99.90;;;;;;5090890;28;20306;-73
2023/07/12 02:10:25;;;;;;;3.97;3.67;;;20.80;99.90;;;;;;5090683;28;20208;-74
2023/07/12 02:12:51;;;;;;;4.13;3.80;;;20.90;99.90;;;;;;5090344;28;20174;-73
2023/07/12 02:15:17;;;;;;;4.13;3.83;;;20.80;99.90;;;;;;5090607;28;20501;-75
2023/07/12 02:17:43;;;;;;;4.35;3.95;;;20.80;99.90;;;;;;5086307;28;20174;-75
2023/07/12 02:20:10;;;;;;;5.63;5.32;;;20.80;99.90;;;;;;5094799;22;20220;-87
2023/07/12 02:22:37;;;;;;;6.57;4.75;;;20.70;99.90;;;;;;5114770;28;20172;-88
2023/07/12 02:25:04;;;;;;;4.50;4.22;;;20.70;99.90;;;;;;5097252;28;20231;-87
2023/07/12 02:27:31;;;;;;;5.57;5.18;;;20.60;99.90;;;;;;5080300;28;20176;-87
2023/07/12 02:29:56;;;;;;;4.30;4.03;;;20.60;99.90;;;;;;5115508;28;20165;-88
2023/07/12 02:32:25;;;;;;;4.47;4.07;;;20.40;99.90;;;;;;5115083;28;20234;-88
2023/07/12 02:34:50;;;;;;;6.00;4.65;;;20.40;99.90;;;;;;5096329;28;20185;-87
2023/07/12 02:37:16;;;;;;;4.53;4.22;;;20.30;99.90;;;;;;5097113;28;20520;-88
2023/07/12 02:39:43;;;;;;;5.18;4.38;;;20.30;99.90;;;;;;5115822;28;20172;-87
2023/07/12 02:42:09;;;;;;;4.90;4.60;;;20.20;99.90;;;;;;5097180;28;20279;-87
2023/07/12 02:44:39;;;;;;;7.60;4.10;;;20.20;99.90;;;;;;5096436;28;20225;-88
2023/07/12 02:47:10;;;;;;;4.53;4.22;;;20.10;99.90;;;;;;5081321;28;20180;-88
2023/07/12 02:49:36;;;;;;;6.73;4.27;;;20.00;99.90;;;;;;5060594;28;20181;-87
2023/07/12 02:52:04;;;;;;;3.70;3.50;;;20.00;99.90;;;;;;5094653;28;20195;-87
2023/07/12 02:54:30;;;;;;;6.70;4.00;;;19.90;99.90;;;;;;5094130;28;20201;-87
2023/07/12 02:56:56;;;;;;;4.65;4.25;;;19.80;99.90;;;;;;5094713;28;20225;-87
2023/07/12 02:59:22;;;;;;;5.65;5.22;;;19.80;99.90;;;;;;5076455;28;20283;-87
2023/07/12 03:01:48;;;;;;;4.32;4.03;;;19.80;99.90;;;;;;5076026;28;20177;-88
2023/07/12 03:04:14;;;;;;;4.77;4.37;;;19.90;99.90;;;;;;5094203;28;20659;-87
2023/07/12 03:06:39;;;;;;;6.43;4.88;;;19.80;99.90;;;;;;5094371;28;20256;-86
2023/07/12 03:09:06;;;;;;;5.00;4.60;;;19.80;99.90;;;;;;5078418;28;20193;-87
2023/07/12 03:11:32;;;;;;;4.67;4.13;;;19.80;99.90;;;;;;5100127;28;20193;-87
2023/07/12 03:13:58;;;;;;;4.63;4.22;;;19.80;99.90;;;;;;5085464;28;20228;-87
2023/07/12 03:16:25;;;;;;;5.90;3.83;;;19.80;99.90;;;;;;5098719;28;20709;-87
2023/07/12 03:18:52;;;;;;;4.15;3.85;;;19.70;99.90;;;;;;5101931;28;20196;-88
2023/07/12 03:21:18;;;;;;;6.35;3.38;;;19.60;99.90;;;;;;5100922;28;20196;-87
2023/07/12 03:23:44;;;;;;;3.60;3.40;;;19.50;99.90;;;;;;5121924;28;20188;-87
2023/07/12 03:26:09;;;;;;;6.45;3.60;;;19.40;99.90;;;;;;5101207;28;20169;-87
2023/07/12 03:28:35;;;;;;;3.83;3.53;;;19.40;99.90;;;;;;5100330;28;20169;-87
2023/07/12 03:31:05;;;;;;;3.80;3.50;;;19.30;99.90;;;;;;5116636;28;20542;-88
2023/07/12 03:33:31;;;;;;;5.17;3.57;;;19.20;99.90;;;;;;5098668;28;20660;-88
2023/07/12 03:35:58;;;;;;;7.78;3.80;;;19.20;99.90;;;;;;5116978;28;20224;-88
2023/07/12 03:38:28;;;;;;;3.57;3.37;;;19.20;99.90;;;;;;5103897;28;20173;-87
2023/07/12 03:40:55;;;;;;;4.33;3.93;;;19.20;99.90;;;;;;5120936;28;20185;-86
2023/07/12 03:43:21;;;;;;;5.70;3.67;;;19.10;99.90;;;;;;5096878;28;20228;-87
2023/07/12 03:45:47;;;;;;;3.93;3.60;;;19.00;99.90;;;;;;5090256;28;20173;-86
2023/07/12 03:48:12;;;;;;;3.70;3.37;;;19.00;99.90;;;;;;5107801;28;20197;-85
2023/07/12 03:50:40;;;;;;;3.60;3.40;;;19.00;99.90;;;;;;5093806;28;20303;-87
2023/07/12 03:53:06;;;;;;;4.20;3.83;;;19.00;99.90;;;;;;5076090;28;20200;-87
2023/07/12 03:55:31;;;;;;;3.53;3.33;;;19.00;99.90;;;;;;5094390;28;20205;-87
2023/07/12 03:57:57;;;;;;;4.40;3.40;;;19.00;99.90;;;;;;5076170;28;20188;-87
2023/07/12 04:00:23;;;;;;;3.90;3.40;;;19.10;99.90;;;;;;5075218;28;20195;-87
2023/07/12 04:02:49;;;;;;;4.18;3.95;;;19.10;99.90;;;;;;5074866;28;20227;-87
2023/07/12 04:05:15;;;;;;;3.97;3.67;;;19.00;99.90;;;;;;5075206;28;20606;-87
2023/07/12 04:07:43;;;;;;;3.67;3.47;;;19.00;99.90;;;;;;5075080;28;20643;-87
2023/07/12 04:10:09;;;;;;;4.00;3.70;;;19.00;99.90;;;;;;5081775;28;20168;-87
2023/07/12 04:12:35;;;;;;;3.72;3.50;;;18.80;99.90;;;;;;5113270;28;20502;-86
2023/07/12 04:15:01;;;;;;;3.87;3.40;;;18.70;99.90;;;;;;5113538;28;20246;-86
2023/07/12 04:17:27;;;;;;;3.47;3.27;;;18.60;99.90;;;;;;5095815;28;20173;-86
2023/07/12 04:19:53;;;;;;;3.87;3.57;;;18.30;99.90;;;;;;5094993;28;20181;-87
2023/07/12 04:22:18;;;;;;;3.80;3.60;;;18.10;99.90;;;;;;5113635;28;20169;-87
2023/07/12 04:24:49;;;;;;;4.57;4.07;;;17.90;99.90;;;;;;5094912;28;20268;-87
2023/07/12 04:27:14;;;;;;;4.17;3.87;;;17.90;99.90;;;;;;5096502;28;20551;-87
2023/07/12 04:29:42;;;;;;;4.53;4.23;;;18.00;99.90;;;;;;5113107;28;20263;-87
2023/07/12 04:32:08;;;;;;;4.90;4.50;;;18.00;99.90;;;;;;5113529;28;20176;-87
2023/07/12 04:34:34;;;;;;;5.57;3.90;;;18.00;99.90;;;;;;5094727;28;20197;-87
2023/07/12 04:37:01;;;;;;;4.10;3.80;;;17.90;99.90;;;;;;5094696;28;20215;-86
2023/07/12 04:39:26;;;;;;;4.10;3.80;;;17.90;99.90;;;;;;5077323;28;20192;-87
2023/07/12 04:41:52;;;;;;;3.97;3.77;;;17.90;99.90;;;;;;5075511;28;20181;-85
2023/07/12 04:44:17;;;;;;;3.90;3.70;;;17.90;99.90;;;;;;5094789;28;20610;-87
2023/07/12 04:46:43;;;;;;;4.27;3.97;;;17.90;99.90;;;;;;5063782;28;20192;-87
2023/07/12 04:49:09;;;;;;;4.50;4.20;;;18.00;99.90;;;;;;5075437;28;20169;-88
2023/07/12 04:51:35;;;;;;;4.10;3.90;;;18.00;99.90;;;;;;5075256;28;20241;-88
2023/07/12 04:54:02;;;;;;;4.40;3.90;;;18.10;99.90;;;;;;5092640;28;20240;-87
2023/07/12 04:56:28;;;;;;;4.30;3.90;;;18.10;99.90;;;;;;5075053;28;20209;-87
2023/07/12 04:58:54;;;;;;;4.03;3.83;;;18.10;99.90;;;;;;5058313;28;20184;-86
2023/07/12 05:01:21;;;;;;;4.30;4.00;;;18.10;99.90;;;;;;5074877;28;20181;-87
2023/07/12 05:03:47;;;;;;;4.73;4.33;;;18.10;99.90;;;;;;5075230;28;20674;-87
2023/07/12 05:06:13;;;;;;;5.00;4.47;;;18.10;99.90;;;;;;5075414;28;20189;-87
2023/07/12 05:08:39;;;;;;;3.80;3.50;;;18.20;99.90;;;;;;5092930;28;20177;-87
2023/07/12 05:11:05;;;;;;;3.90;3.60;;;18.20;99.90;;;;;;5074887;28;20189;-88
2023/07/12 05:13:31;;;;;;;4.23;3.90;;;18.20;99.90;;;;;;5074264;28;20651;-85
2023/07/12 05:15:58;;;;;;;4.23;3.93;;;18.10;99.90;;;;;;5093015;28;20205;-88
2023/07/12 05:18:23;;;;;;;4.10;3.80;;;18.10;99.90;;;;;;5074528;28;20177;-87
2023/07/12 05:20:50;;;;;;;4.47;4.17;;;18.10;99.90;;;;;;5092218;28;20693;-87
2023/07/12 05:23:15;;;;;;;4.17;3.87;;;18.10;99.90;;;;;;5057622;28;20213;-87
2023/07/12 05:25:52;;;;;;;4.77;4.37;;;18.20;99.90;;;;;;5092513;28;20227;-87
2023/07/12 05:28:18;;;;;;;4.10;3.80;;;18.30;99.90;;;;;;5092579;28;20195;-88
2023/07/12 05:30:44;;;;;;;4.07;3.63;;;18.40;99.90;;;;;;5074855;28;20193;-90
2023/07/12 05:33:10;;;;;;;4.13;3.93;;;18.50;99.90;;;;;;5093039;28;20203;-85
2023/07/12 05:35:36;;;;;;;3.60;3.40;;;18.60;99.90;;;;;;5093036;28;20193;-84
2023/07/12 05:38:02;;;;;;;3.77;3.47;;;18.70;99.90;;;;;;5095532;28;20836;-90
2023/07/12 05:40:29;;;;;;;4.13;3.80;;;18.80;99.90;;;;;;5094985;28;20202;-86
2023/07/12 05:42:58;;;;;;;4.33;4.03;;;18.90;99.90;;;;;;5112191;28;20177;-85
2023/07/12 05:45:24;;;;;;;3.93;3.63;;;18.80;99.90;;;;;;5073969;28;20208;-86
2023/07/12 05:47:51;;;;;;;4.50;3.60;;;18.80;99.90;;;;;;5057746;28;20188;-87
2023/07/12 05:50:20;;;;;;;4.03;3.73;;;18.80;99.90;;;;;;5074618;28;20205;-86
2023/07/12 05:52:48;;;;;;;4.57;3.63;;;18.80;99.90;;;;;;5074490;28;20185;-86
2023/07/12 05:55:19;;;;;;;3.30;3.10;;;18.80;99.90;;;;;;5096064;28;20193;-87
2023/07/12 05:57:45;;;;;;;4.00;3.80;;;18.80;99.90;;;;;;5078119;28;20173;-86
2023/07/12 06:00:13;;;;;;;4.00;3.60;;;18.80;99.90;;;;;;5080750;28;20173;-86
2023/07/12 06:02:38;;;;;;;3.90;3.60;;;18.80;99.90;;;;;;5078110;28;20169;-85
2023/07/12 06:05:11;;;;;;;4.20;3.90;;;18.80;99.90;;;;;;5079057;28;20193;-86
2023/07/12 06:07:37;;;;;;;3.93;3.63;;;18.70;99.90;;;;;;5077940;28;20587;-86
2023/07/12 06:10:03;;;;;;;4.00;3.60;;;18.70;99.90;;;;;;5077979;28;20209;-86
2023/07/12 06:12:28;;;;;;;3.70;3.50;;;18.60;99.90;;;;;;5060734;28;20174;-88
2023/07/12 06:14:54;;;;;;;3.97;3.78;;;18.70;99.90;;;;;;5077417;28;20200;-88
2023/07/12 06:17:20;;;;;;;3.65;3.45;;;19.00;99.90;;;;;;5095277;28;20232;-87
2023/07/12 06:19:45;;;;;;;3.55;3.35;;;19.30;99.90;;;;;;5077513;28;20253;-88
2023/07/12 06:22:12;;;;;;;3.83;3.53;;;19.80;99.90;;;;;;5077110;28;20197;-89
2023/07/12 06:24:38;;;;;;;3.10;3.00;;;20.30;99.90;;;;;;5077270;28;20636;-87
2023/07/12 06:27:06;;;;;;;8.20;7.78;;;20.50;99.90;;;;;;5077133;28;20235;-87
2023/07/12 06:29:31;;;;;;;5.53;5.22;;;21.00;99.90;;;;;;5095587;28;20173;-87
2023/07/12 06:31:57;;;;;;;3.45;3.25;;;21.30;99.90;;;;;;5096575;28;20200;-88
2023/07/12 06:34:24;;;;;;;4.30;3.25;;;21.20;99.90;;;;;;5097035;28;20199;-87
2023/07/12 06:36:49;;;;;;;6.88;3.65;;;21.30;99.90;;;;;;5115935;28;20204;-87
2023/07/12 06:39:16;;;;;;;6.20;5.88;;;21.50;99.90;;;;;;5115345;28;20173;-88
2023/07/12 06:41:42;;;;;;;6.70;3.60;;;21.60;99.90;;;;;;5096955;28;20654;-88
2023/07/12 06:44:07;;;;;;;3.88;3.53;;;21.30;99.90;;;;;;5097034;28;20196;-87
2023/07/12 06:46:33;;;;;;;4.05;3.75;;;21.10;99.90;;;;;;5115544;28;20177;-87
2023/07/12 06:48:58;;;;;;;5.13;4.47;;;21.20;99.90;;;;;;5097067;28;20211;-87
2023/07/12 06:51:24;;;;;;;4.78;4.47;;;21.60;99.90;;;;;;5096617;28;20177;-88
2023/07/12 06:53:50;;;;;;;4.18;3.88;;;22.00;99.90;;;;;;5097002;28;20228;-87
2023/07/12 06:56:15;;;;;;;4.28;3.88;;;22.20;99.90;;;;;;5097704;22;20226;-70
2023/07/12 06:58:41;;;;;;;7.35;3.13;;;22.30;99.90;;;;;;5081628;28;20188;-70
2023/07/12 07:01:10;;;;;;;3.08;2.70;;;22.70;99.90;;;;;;5082037;28;20185;-72
2023/07/12 07:03:36;;;;;;;3.15;2.95;;;22.90;99.90;;;;;;5093178;28;20172;-71
2023/07/12 07:06:01;;;;;;;3.35;3.08;;;22.60;99.90;;;;;;5093690;28;20170;-69
2023/07/12 07:08:27;;;;;;;3.05;2.83;;;22.20;99.90;;;;;;5073208;28;20230;-71
2023/07/12 07:10:53;;;;;;;3.50;3.03;;;22.30;99.90;;;;;;5072949;28;20197;-72
2023/07/12 07:13:22;;;;;;;3.45;2.95;;;22.70;99.90;;;;;;5073216;28;20205;-73
2023/07/12 07:15:48;;;;;;;3.00;2.70;;;22.90;99.90;;;;;;5054909;28;20205;-72
2023/07/12 07:18:14;;;;;;;3.03;2.72;;;23.20;99.90;;;;;;5073217;28;20244;-71
2023/07/12 07:20:40;;;;;;;3.28;2.97;;;23.00;99.90;;;;;;5072763;28;20668;-71
2023/07/12 07:23:06;;;;;;;5.38;3.17;;;22.50;99.90;;;;;;5072707;28;20547;-70
2023/07/12 07:25:32;;;;;;;4.28;3.65;;;22.20;99.90;;;;;;5072836;28;20648;-72
2023/07/12 07:27:57;;;;;;;4.43;4.05;;;22.30;99.90;;;;;;5054975;28;20198;-72
2023/07/12 07:30:23;;;;;;;3.85;3.55;;;22.20;99.90;;;;;;5054811;28;20189;-72
2023/07/12 07:32:49;;;;;;;2.80;2.58;;;22.60;99.90;;;;;;5072581;28;20629;-72
2023/07/12 07:35:16;;;;;;;4.57;2.85;;;22.80;99.90;;;;;;5073798;28;20171;-71
2023/07/12 07:37:42;;;;;;;3.40;2.97;;;22.90;99.90;;;;;;5088758;28;20180;-72
2023/07/12 07:40:08;;;;;;;5.63;2.90;;;23.00;99.90;;;;;;5093160;28;20589;-73
2023/07/12 07:42:34;;;;;;;4.38;2.80;;;23.10;99.90;;;;;;5074158;28;20169;-69
2023/07/12 07:45:00;;;;;;;3.22;2.92;;;23.40;99.90;;;;;;5092797;28;20455;-71
2023/07/12 07:47:26;;;;;;;3.15;2.70;;;23.20;99.90;;;;;;5092918;28;20170;-73
2023/07/12 07:49:52;;;;;;;2.90;2.70;;;23.40;99.90;;;;;;5092510;28;20193;-71
2023/07/12 07:52:18;;;;;;;4.10;3.72;;;23.60;99.90;;;;;;5092789;28;20177;-71
2023/07/12 07:54:44;;;;;;;3.53;3.15;;;23.80;99.90;;;;;;5073944;28;20193;-70
2023/07/12 07:57:09;;;;;;;4.32;4.13;;;23.90;99.90;;;;;;5092503;28;20227;-70
2023/07/12 07:59:35;;;;;;;4.88;4.00;;;23.60;99.90;;;;;;5091978;28;20209;-71
2023/07/12 08:02:01;;;;;;;2.97;2.78;;;23.40;99.90;;;;;;5092639;28;20170;-70
2023/07/12 08:04:27;;;;;;;4.03;3.22;;;23.20;99.90;;;;;;5087818;28;20209;-71
2023/07/12 08:06:52;;;;;;;3.78;3.47;;;23.30;99.90;;;;;;5072159;28;20174;-71
2023/07/12 08:09:18;;;;;;;3.00;2.80;;;23.50;99.90;;;;;;5072395;28;20174;-72
2023/07/12 08:11:43;;;;;;;6.03;5.65;;;23.70;99.90;;;;;;5072032;28;20672;-70
2023/07/12 08:14:09;;;;;;;3.38;3.08;;;23.80;99.90;;;;;;5072048;28;20178;-72
2023/07/12 08:16:37;;;;;;;5.53;3.80;;;23.90;99.90;;;;;;5071700;28;20285;-72
2023/07/12 08:19:03;;;;;;;5.10;2.70;;;23.80;99.90;;;;;;5053681;28;20178;-73
2023/07/12 08:21:30;;;;;;;2.72;2.50;;;24.10;99.90;;;;;;5072195;28;20172;-72
2023/07/12 08:23:55;;;;;;;3.53;2.63;;;24.40;99.90;;;;;;5071479;28;20177;-72
2023/07/12 08:26:21;;;;;;;2.55;2.35;;;24.90;99.90;;;;;;5054008;28;20549;-70
2023/07/12 08:28:47;;;;;;;3.00;2.72;;;24.50;99.90;;;;;;5071761;28;20202;-72
2023/07/12 08:31:13;;;;;;;4.90;3.30;;;24.10;99.90;;;;;;5088279;28;20212;-71
2023/07/12 08:33:39;;;;;;;3.03;2.83;;;23.90;99.90;;;;;;5077308;28;20190;-70
2023/07/12 08:36:04;;;;;;;3.25;2.53;;;24.00;99.90;;;;;;5053793;28;20206;-71
2023/07/12 08:38:31;;;;;;;2.75;2.55;;;24.10;99.90;;;;;;5071301;28;20257;-72
2023/07/12 08:40:58;;;;;;;5.75;2.63;;;24.10;99.90;;;;;;5071546;28;20189;-70
2023/07/12 08:43:32;;;;;;;4.97;2.60;;;24.30;99.90;;;;;;5071352;28;20170;-72
2023/07/12 08:46:11;;;;;;;3.35;3.05;;;24.30;99.90;;;;;;5071526;28;20626;-71
2023/07/12 08:48:37;;;;;;;2.90;2.70;;;24.20;99.90;;;;;;5071168;28;20215;-70
2023/07/12 08:51:13;;;;;;;3.50;2.60;;;24.20;99.90;;;;;;5071417;28;20255;-70
2023/07/12 08:53:41;;;;;;;2.97;2.78;;;24.10;99.90;;;;;;5070937;28;20169;-73
2023/07/12 08:56:14;;;;;;;3.30;3.10;;;24.10;99.90;;;;;;5071277;28;20276;-72
2023/07/12 08:58:47;;;;;;;2.90;2.70;;;24.40;99.90;;;;;;5071279;28;20182;-71
2023/07/12 09:01:16;;;;;;;2.30;2.20;;;24.40;99.90;;;;;;5081160;28;20562;-71
2023/07/12 09:03:42;;;;;;;3.05;2.67;;;24.60;99.90;;;;;;5091161;28;20170;-72
2023/07/12 09:06:13;;;;;;;2.40;2.20;;;25.00;99.90;;;;;;5091592;28;20182;-71
2023/07/12 09:08:43;;;;;;;2.88;2.60;;;25.40;99.90;;;;;;5091381;28;20181;-71
2023/07/12 09:11:18;;;;;;;5.65;2.65;;;25.70;99.90;;;;;;5091587;28;20246;-72
2023/07/12 09:13:46;;;;;;;3.97;2.90;;;25.50;99.90;;;;;;5073071;28;20647;-72
2023/07/12 09:16:30;;;;;;;3.92;3.15;;;25.70;99.90;;;;;;5091841;28;20292;-72
2023/07/12 09:19:00;;;;;;;2.90;2.70;;;25.70;99.90;;;;;;5086261;28;20181;-73
2023/07/12 09:21:31;;;;;;;4.63;2.90;;;26.10;99.90;;;;;;5053217;28;20217;-71
2023/07/12 09:24:03;;;;;;;2.88;2.67;;;26.60;99.90;;;;;;5053127;28;20176;-73
2023/07/12 09:26:31;;;;;;;2.50;2.30;;;26.90;99.90;;;;;;5071201;28;20174;-73
2023/07/12 09:28:58;;;;;;;2.70;2.50;;;26.90;99.90;;;;;;5053055;28;20549;-73
2023/07/12 09:31:28;;;;;;;4.63;2.60;;;27.10;99.90;;;;;;5075174;28;20285;-73
2023/07/12 09:34:00;;;;;;;3.60;2.80;;;26.60;99.90;;;;;;5056774;28;20227;-72
2023/07/12 09:36:25;;;;;;;4.40;2.65;;;26.30;99.90;;;;;;5057293;28;20202;-73
2023/07/12 09:38:51;;;;;;;3.47;3.17;;;26.20;99.90;;;;;;5074856;28;21017;-72
2023/07/12 09:41:23;;;;;;;3.65;3.00;;;26.20;99.90;;;;;;5075189;28;20207;-72
2023/07/12 09:43:54;;;;;;;3.97;2.42;;;25.60;99.90;;;;;;5074618;28;20174;-72
2023/07/12 09:46:34;;;;;;;3.92;2.85;;;25.70;99.90;;;;;;5057150;28;20174;-73
2023/07/12 09:49:10;;;;;;;3.25;2.70;;;26.30;99.90;;;;;;5075139;28;20585;-72
2023/07/12 09:51:39;;;;;;;4.10;2.28;;;26.50;99.90;;;;;;5074856;28;20675;-72
2023/07/12 09:54:29;;;;;;;5.03;2.67;;;26.50;99.90;;;;;;5074427;28;20577;-73
2023/07/12 09:57:01;;;;;;;3.47;2.90;;;26.40;99.90;;;;;;5075143;28;20213;-72
2023/07/12 09:59:38;;;;;;;2.53;2.33;;;25.90;99.90;;;;;;5063122;28;20602;-72
2023/07/12 10:02:21;;;;;;;2.95;2.53;;;25.50;99.90;;;;;;5095098;28;20165;-72
2023/07/12 10:04:59;;;;;;;2.67;2.58;;;25.60;99.90;;;;;;5094763;28;20487;-73
2023/07/12 10:07:47;;;;;;;2.65;2.45;;;25.90;99.90;;;;;;5076969;28;20207;-71
2023/07/12 10:10:20;;;;;;;2.85;2.42;;;25.90;99.90;;;;;;5095095;28;20214;-71
2023/07/12 10:13:03;;;;;;;2.70;2.50;;;25.80;99.90;;;;;;5076262;28;20182;-73
2023/07/12 10:15:33;;;;;;;7.35;6.80;;;26.00;99.90;;;;;;5086586;28;20208;-72
2023/07/12 10:17:58;;;;;;;3.03;2.60;;;25.70;99.90;;;;;;5074451;28;20280;-70
2023/07/12 10:20:25;;;;;;;3.33;2.67;;;25.40;99.90;;;;;;5074314;28;20189;-70
2023/07/12 10:22:53;;;;;;;2.97;2.60;;;25.10;99.90;;;;;;5073908;28;20181;-70
2023/07/12 10:25:23;;;;;;;2.88;2.58;;;25.40;99.90;;;;;;5056390;28;20182;-71
2023/07/12 10:28:13;;;;;;;2.95;2.75;;;25.70;99.90;;;;;;5056173;28;20596;-71
2023/07/12 10:30:41;;;;;;;3.75;2.85;;;25.90;99.90;;;;;;5073959;28;20194;-70
2023/07/12 10:33:29;;;;;;;2.80;2.58;;;26.20;99.90;;;;;;5087285;28;20177;-70
2023/07/12 10:35:58;;;;;;;2.65;2.45;;;26.20;99.90;;;;;;5075962;28;20208;-71
2023/07/12 10:38:25;;;;;;;2.75;2.55;;;26.00;99.90;;;;;;5094068;28;20177;-71
2023/07/12 10:40:59;;;;;;;2.63;2.42;;;25.70;99.90;;;;;;5075327;28;20272;-71
2023/07/12 10:43:37;;;;;;;2.95;2.53;;;26.10;99.90;;;;;;5075798;28;20181;-70
2023/07/12 10:46:12;;;;;;;3.55;3.35;;;26.50;99.90;;;;;;5092854;28;20169;-71
2023/07/12 10:48:42;;;;;;;3.35;2.60;;;26.80;99.90;;;;;;5073677;28;20655;-72
2023/07/12 10:51:21;;;;;;;4.65;2.55;;;26.90;99.90;;;;;;5073992;28;20189;-70
2023/07/12 10:53:50;;;;;;;5.95;2.92;;;26.90;99.90;;;;;;5073416;28;20178;-71
2023/07/12 10:56:17;;;;;;;3.90;2.75;;;27.20;99.90;;;;;;5055710;28;20213;-70
2023/07/12 10:58:50;;;;;;;3.05;2.22;;;27.20;99.90;;;;;;5073485;28;20657;-70
2023/07/12 11:01:42;;;;;;;3.35;3.15;;;27.60;99.90;;;;;;5073664;28;20602;-71
2023/07/12 11:04:09;;;;;;;5.25;4.85;;;27.60;99.90;;;;;;5073556;28;20170;-71
2023/07/12 11:06:35;;;;;;;3.22;3.03;;;27.30;99.90;;;;;;5090569;28;20185;-71
2023/07/12 11:09:06;;;;;;;5.25;4.95;;;27.40;99.90;;;;;;5093731;28;20177;-69
2023/07/12 11:11:41;;;;;;;3.75;3.45;;;27.50;99.90;;;;;;5093730;28;20173;-71
2023/07/12 11:14:21;;;;;;;9.38;8.93;;;27.10;99.90;;;;;;5074498;28;20588;-69
2023/07/12 11:17:03;;;;;;;4.65;4.03;;;27.10;99.90;;;;;;5093367;28;20232;-72
2023/07/12 11:19:46;;;;;;;4.15;3.95;;;26.70;99.90;;;;;;5093524;28;20251;-71
2023/07/12 11:22:21;;;;;;;3.50;3.20;;;26.60;99.90;;;;;;5075287;28;20326;-71
2023/07/12 11:25:00;;;;;;;4.18;3.97;;;27.00;99.90;;;;;;5093205;28;20157;-71
2023/07/12 11:27:43;;;;;;;3.42;2.83;;;27.30;99.90;;;;;;5093530;28;20165;-70
2023/07/12 11:30:27;;;;;;;2.80;2.60;;;27.70;99.90;;;;;;5093302;28;20672;-70
2023/07/12 11:33:23;;;;;;;3.83;3.30;;;27.40;99.90;;;;;;5092531;28;20181;-69
2023/07/12 11:36:09;;;;;;;2.90;2.70;;;26.40;99.90;;;;;;5093459;28;20615;-71
2023/07/12 11:38:37;;;;;;;4.40;3.08;;;26.00;99.90;;;;;;5075024;28;20606;-70
2023/07/12 11:41:17;;;;;;;3.35;3.05;;;26.10;99.90;;;;;;5093254;28;20268;-73
2023/07/12 11:43:43;;;;;;;8.57;3.05;;;26.10;99.90;;;;;;5060958;28;20249;-70
2023/07/12 11:46:25;;;;;;;2.75;2.55;;;25.90;99.90;;;;;;5055053;28;20210;-71
2023/07/12 11:48:56;;;;;;;6.30;3.30;;;26.10;99.90;;;;;;5072825;28;20189;-70
2023/07/12 11:51:36;;;;;;;3.30;2.85;;;26.50;99.90;;;;;;5072618;28;20186;-69
2023/07/12 11:54:15;;;;;;;2.90;2.70;;;26.80;99.90;;;;;;5071988;28;20174;-70
2023/07/12 11:56:42;;;;;;;4.93;3.90;;;27.10;99.90;;;;;;5072479;28;20197;-71
2023/07/12 11:59:15;;;;;;;5.05;4.13;;;27.50;99.90;;;;;;5072690;28;20181;-70
2023/07/12 12:01:43;;;;;;;3.15;2.85;;;27.60;99.90;;;;;;5072867;28;20162;-73
2023/07/12 12:04:08;;;;;;;3.22;3.03;;;27.80;99.90;;;;;;5054567;28;20186;-70
2023/07/12 12:06:35;;;;;;;4.55;3.40;;;27.70;99.90;;;;;;5072676;28;20173;-72
2023/07/12 12:09:01;;;;;;;2.92;2.67;;;27.70;99.90;;;;;;5072540;28;20209;-72
2023/07/12 12:11:28;;;;;;;4.22;3.10;;;28.20;99.90;;;;;;5073519;28;20198;-71
2023/07/12 12:13:56;;;;;;;3.40;3.08;;;28.10;99.90;;;;;;5072469;28;20193;-70
2023/07/12 12:16:27;;;;;;;3.05;2.85;;;27.70;99.30;;;;;;5072413;28;20198;-71
2023/07/12 12:19:08;;;;;;;3.63;3.10;;;27.20;99.70;;;;;;5072201;28;20178;-70
2023/07/12 12:21:47;;;;;;;2.85;2.30;;;26.90;99.90;;;;;;5086939;28;20698;-71
2023/07/12 12:24:18;;;;;;;4.22;2.75;;;26.70;99.90;;;;;;5073951;28;20177;-71
2023/07/12 12:26:45;;;;;;;3.28;2.70;;;26.80;99.90;;;;;;5092326;28;20165;-72
2023/07/12 12:29:16;;;;;;;4.80;2.97;;;27.00;99.70;;;;;;5092269;28;20636;-71
2023/07/12 12:32:03;;;;;;;3.75;2.40;;;27.10;99.90;;;;;;5092169;28;20535;-72
2023/07/12 12:34:37;;;;;;;3.17;2.97;;;27.30;99.90;;;;;;5091373;28;20230;-70
2023/07/12 12:37:06;;;;;;;3.00;2.80;;;27.20;99.90;;;;;;5092105;28;20215;-70
2023/07/12 12:39:32;;;;;;;4.47;3.10;;;27.00;99.90;;;;;;5092085;28;20254;-71
2023/07/12 12:42:02;;;;;;;5.53;2.85;;;26.90;99.90;;;;;;5092102;28;20173;-70
2023/07/12 12:44:30;;;;;;;2.40;2.20;;;26.70;99.90;;;;;;5091881;28;20257;-72
2023/07/12 12:46:59;;;;;;;3.40;2.83;;;26.70;99.90;;;;;;5091924;28;20173;-72
2023/07/12 12:49:24;;;;;;;6.72;2.80;;;27.00;99.90;;;;;;5091890;28;20204;-72
2023/07/12 12:51:52;;;;;;;5.50;2.83;;;27.10;99.90;;;;;;5091869;28;20177;-71
2023/07/12 12:54:18;;;;;;;2.70;2.45;;;27.20;99.90;;;;;;5091429;28;20287;-72
2023/07/12 12:56:45;;;;;;;3.97;2.47;;;27.60;99.90;;;;;;5090478;28;20300;-72